createdAt,value
2023-10-10T00:01:33.954Z,42.94
2023-10-10T00:04:26.825Z,43.03
2023-10-10T00:07:15.506Z,43.05
2023-10-10T00:10:01.685Z,43.34
2023-10-10T00:12:49.256Z,43.18
2023-10-10T00:15:39.351Z,43.54
2023-10-10T00:18:26.250Z,43.43
2023-10-10T00:21:18.924Z,43.59
2023-10-10T00:24:05.265Z,43.55
2023-10-10T00:26:53.689Z,44.40
2023-10-10T00:29:46.152Z,44.16
2023-10-10T00:32:36.687Z,43.94
2023-10-10T00:35:23.899Z,44.09
2023-10-10T00:38:15.239Z,44.26
2023-10-10T00:41:07.259Z,44.51
2023-10-10T00:43:54.018Z,44.37
2023-10-10T00:46:40.972Z,44.50
2023-10-10T00:49:27.505Z,44.50
2023-10-10T00:52:17.970Z,44.63
2023-10-10T00:55:05.854Z,44.62
2023-10-10T00:57:57.085Z,44.68
2023-10-10T01:00:47.552Z,44.63
2023-10-10T01:03:36.205Z,44.59
2023-10-10T01:06:31.107Z,44.65
2023-10-10T01:09:16.916Z,44.73
2023-10-10T01:12:06.290Z,44.84
2023-10-10T01:14:56.054Z,44.81
2023-10-10T01:17:42.621Z,45.11
2023-10-10T01:20:36.246Z,45.12
2023-10-10T01:23:28.134Z,45.08
2023-10-10T01:26:14.482Z,45.22
2023-10-10T01:29:14.137Z,45.16
2023-10-10T01:32:00.746Z,45.34
2023-10-10T01:34:47.258Z,45.30
2023-10-10T01:37:36.719Z,45.37
2023-10-10T01:40:24.852Z,45.59
2023-10-10T01:43:11.915Z,45.47
2023-10-10T01:46:21.189Z,45.34
2023-10-10T01:49:10.045Z,45.30
2023-10-10T01:52:02.180Z,45.44
2023-10-10T01:54:54.091Z,45.52
2023-10-10T01:57:40.541Z,45.52
2023-10-10T02:00:26.976Z,45.43
2023-10-10T02:03:13.532Z,45.35
2023-10-10T02:06:00.944Z,45.51
2023-10-10T02:08:47.229Z,45.58
2023-10-10T02:11:33.458Z,45.63
2023-10-10T02:14:20.443Z,45.51
2023-10-10T02:17:21.362Z,45.38
2023-10-10T02:20:31.267Z,45.78
2023-10-10T02:23:26.350Z,45.99
2023-10-10T02:26:31.209Z,45.76
2023-10-10T02:29:36.455Z,45.96
2023-10-10T02:32:22.946Z,45.92
2023-10-10T02:35:28.064Z,45.95
2023-10-10T02:38:14.534Z,46.02
2023-10-10T02:41:23.226Z,45.88
2023-10-10T02:44:12.132Z,45.87
2023-10-10T02:46:58.444Z,45.83
2023-10-10T02:49:45.907Z,45.94
2023-10-10T02:52:31.985Z,45.89
2023-10-10T02:55:23.985Z,45.80
2023-10-10T02:58:21.776Z,45.85
2023-10-10T03:01:20.285Z,45.78
2023-10-10T03:04:09.875Z,45.81
2023-10-10T03:06:57.503Z,45.63
2023-10-10T03:10:03.688Z,45.67
2023-10-10T03:13:05.240Z,45.86
2023-10-10T03:15:52.921Z,45.88
2023-10-10T03:18:53.561Z,45.87
2023-10-10T03:21:48.828Z,45.81
2023-10-10T03:24:53.505Z,45.79
2023-10-10T03:28:06.415Z,45.81
2023-10-10T03:31:16.827Z,45.96
2023-10-10T03:34:12.303Z,45.98
2023-10-10T03:37:22.363Z,46.04
2023-10-10T03:40:28.289Z,45.92
2023-10-10T03:43:34.779Z,46.13
2023-10-10T03:46:39.361Z,46.16
2023-10-10T03:49:44.385Z,46.11
2023-10-10T03:52:50.308Z,46.11
2023-10-10T03:55:56.362Z,46.23
2023-10-10T03:59:01.247Z,46.19
2023-10-10T04:02:05.816Z,46.35
2023-10-10T04:05:25.849Z,46.38
2023-10-10T04:08:32.064Z,46.49
2023-10-10T04:11:36.524Z,46.34
2023-10-10T04:14:41.320Z,46.43
2023-10-10T04:17:45.811Z,46.29
2023-10-10T04:20:50.490Z,46.45
2023-10-10T04:23:55.281Z,46.19
2023-10-10T04:26:59.747Z,46.48
2023-10-10T04:30:04.448Z,46.34
2023-10-10T04:33:09.266Z,46.36
2023-10-10T04:36:13.711Z,46.45
2023-10-10T04:39:18.465Z,46.47
2023-10-10T04:42:22.948Z,46.63
2023-10-10T04:45:32.424Z,46.66
2023-10-10T04:48:37.041Z,46.54
2023-10-10T04:51:41.766Z,46.50
2023-10-10T04:54:46.519Z,46.48
2023-10-10T04:57:51.033Z,46.59
2023-10-10T05:00:57.495Z,46.71
2023-10-10T05:04:04.678Z,46.72
2023-10-10T05:07:09.354Z,46.57
2023-10-10T05:10:27.691Z,46.78
2023-10-10T05:13:32.051Z,46.88
2023-10-10T05:16:36.695Z,46.89
2023-10-10T05:19:42.386Z,46.73
2023-10-10T05:22:47.156Z,46.92
2023-10-10T05:25:33.218Z,46.93
2023-10-10T05:28:21.238Z,46.88
2023-10-10T05:31:11.441Z,47.00
2023-10-10T05:34:26.589Z,46.97
2023-10-10T05:37:12.645Z,47.12
2023-10-10T05:39:59.389Z,47.09
2023-10-10T05:42:46.353Z,46.99
2023-10-10T05:45:32.278Z,46.98
2023-10-10T05:48:19.435Z,47.07
2023-10-10T05:51:05.523Z,47.00
2023-10-10T05:53:52.874Z,46.90
2023-10-10T05:56:39.475Z,46.92
2023-10-10T05:59:25.621Z,46.94
2023-10-10T06:02:12.513Z,46.95
2023-10-10T06:05:00.588Z,46.98
2023-10-10T06:07:49.544Z,46.94
2023-10-10T06:10:36.248Z,47.09
2023-10-10T06:13:22.533Z,47.01
2023-10-10T06:16:17.220Z,46.83
2023-10-10T06:19:03.626Z,46.84
2023-10-10T06:21:57.165Z,47.11
2023-10-10T06:24:44.908Z,46.97
2023-10-10T06:27:30.946Z,46.91
2023-10-10T06:30:20.032Z,46.87
2023-10-10T06:33:16.469Z,47.04
2023-10-10T06:36:26.903Z,47.11
2023-10-10T06:39:12.775Z,47.03
2023-10-10T06:41:59.788Z,47.03
2023-10-10T06:44:49.469Z,47.09
2023-10-10T06:47:36.363Z,47.07
2023-10-10T06:50:22.769Z,47.14
2023-10-10T06:53:14.908Z,47.13
2023-10-10T06:56:18.912Z,47.10
2023-10-10T06:59:04.962Z,47.08
2023-10-10T07:01:50.724Z,47.50
2023-10-10T07:04:37.072Z,47.26
2023-10-10T07:07:27.728Z,47.25
2023-10-10T07:10:30.775Z,47.32
2023-10-10T07:13:20.224Z,47.66
2023-10-10T07:16:10.214Z,47.46
2023-10-10T07:18:57.666Z,47.25
2023-10-10T07:21:43.901Z,47.16
2023-10-10T07:24:42.307Z,47.17
2023-10-10T07:27:31.536Z,47.35
2023-10-10T07:30:18.150Z,47.29
2023-10-10T07:33:04.633Z,47.26
2023-10-10T07:35:55.116Z,47.58
2023-10-10T07:38:41.825Z,47.37
2023-10-10T07:41:29.303Z,47.38
2023-10-10T07:44:24.010Z,47.25
2023-10-10T07:47:16.175Z,47.25
2023-10-10T07:50:27.974Z,47.28
2023-10-10T07:53:14.616Z,47.03
2023-10-10T07:56:03.948Z,47.13
2023-10-10T07:58:58.100Z,46.99
2023-10-10T08:01:44.258Z,46.94
2023-10-10T08:04:32.373Z,46.74
2023-10-10T08:07:21.687Z,46.47
2023-10-10T08:10:28.112Z,46.44
2023-10-10T08:13:15.533Z,46.33
2023-10-10T08:16:03.957Z,46.28
2023-10-10T08:18:50.021Z,46.61
2023-10-10T08:21:50.247Z,46.35
2023-10-10T08:24:36.955Z,46.58
2023-10-10T08:27:24.243Z,46.51
2023-10-10T08:30:14.744Z,46.36
2023-10-10T08:33:01.539Z,46.29
2023-10-10T08:35:50.959Z,46.21
2023-10-10T08:38:43.338Z,46.08
2023-10-10T08:41:31.420Z,46.26
2023-10-10T08:44:22.237Z,45.75
2023-10-10T08:47:18.177Z,45.70
2023-10-10T08:50:05.179Z,45.56
2023-10-10T08:52:51.886Z,45.52
2023-10-10T08:55:40.402Z,45.17
2023-10-10T08:58:29.843Z,45.34
2023-10-10T09:01:15.876Z,44.94
2023-10-10T09:04:04.649Z,44.84
2023-10-10T09:07:01.421Z,44.40
2023-10-10T09:09:57.021Z,44.51
2023-10-10T09:13:02.516Z,44.28
2023-10-10T09:15:57.594Z,43.87
2023-10-10T09:18:43.678Z,43.90
2023-10-10T09:21:29.636Z,43.58
2023-10-10T09:24:29.424Z,43.48
2023-10-10T09:27:29.116Z,41.19
2023-10-10T09:30:16.677Z,43.04
2023-10-10T09:33:24.358Z,42.83
2023-10-10T09:36:10.724Z,42.76
2023-10-10T09:39:18.248Z,42.55
2023-10-10T09:42:29.292Z,41.50
2023-10-10T09:45:33.418Z,39.60
2023-10-10T09:48:29.874Z,41.48
2023-10-10T09:51:37.134Z,41.23
2023-10-10T09:54:26.829Z,40.96
2023-10-10T09:57:19.350Z,40.61
2023-10-10T10:00:23.972Z,39.82
2023-10-10T10:03:28.812Z,39.83
2023-10-10T10:06:52.380Z,35.56
2023-10-10T10:10:34.620Z,34.92
2023-10-10T10:13:39.863Z,35.84
2023-10-10T10:16:48.956Z,38.66
2023-10-10T10:19:35.012Z,39.11
2023-10-10T10:22:43.644Z,38.46
2023-10-10T10:25:34.617Z,38.64
2023-10-10T10:28:44.589Z,38.49
2023-10-10T10:31:38.514Z,37.78
2023-10-10T10:38:01.177Z,33.44
2023-10-10T10:41:18.505Z,37.16
2023-10-10T10:44:10.424Z,36.92
2023-10-10T10:46:58.239Z,36.80
2023-10-10T10:50:31.068Z,32.52
2023-10-10T10:53:49.698Z,36.94
2023-10-10T10:56:36.238Z,35.49
2023-10-10T10:59:22.290Z,36.09
2023-10-10T11:06:49.757Z,32.02
2023-10-10T11:09:38.791Z,35.99
2023-10-10T11:15:39.544Z,33.11
2023-10-10T11:18:36.424Z,35.65
2023-10-10T11:21:28.924Z,35.59
2023-10-10T11:24:17.149Z,35.35
2023-10-10T11:27:15.778Z,34.89
2023-10-10T11:30:11.455Z,33.84
2023-10-10T11:33:15.988Z,34.40
2023-10-10T11:36:22.932Z,32.41
2023-10-10T11:39:33.510Z,32.60
2023-10-10T11:42:34.558Z,28.71
2023-10-10T11:45:21.036Z,33.44
2023-10-10T11:48:14.622Z,32.08
2023-10-10T11:51:01.001Z,31.51
2023-10-10T11:53:47.837Z,30.29
2023-10-10T11:56:36.075Z,28.93
2023-10-10T11:59:24.475Z,27.64
2023-10-10T12:02:15.498Z,27.62
2023-10-10T12:05:15.862Z,27.47
2023-10-10T12:08:03.547Z,27.13
2023-10-10T12:10:53.600Z,27.53
2023-10-10T12:13:40.277Z,28.57
2023-10-10T12:16:26.697Z,27.88
2023-10-10T12:19:15.725Z,26.91
2023-10-10T12:22:09.463Z,25.66
2023-10-10T12:24:56.260Z,25.46
2023-10-10T12:27:47.578Z,24.55
2023-10-10T12:30:33.702Z,24.53
2023-10-10T12:33:25.747Z,23.43
2023-10-10T12:36:11.790Z,23.87
2023-10-10T12:38:59.355Z,23.53
2023-10-10T12:41:47.685Z,23.97
2023-10-10T12:44:33.761Z,23.91
2023-10-10T12:47:21.075Z,24.33
2023-10-10T12:50:14.247Z,23.73
2023-10-10T12:53:08.956Z,24.64
2023-10-10T12:56:02.114Z,24.93
2023-10-10T12:58:59.404Z,24.43
2023-10-10T13:01:53.238Z,24.32
2023-10-10T13:04:39.704Z,24.47
2023-10-10T13:07:26.190Z,23.99
2023-10-10T13:10:12.545Z,23.99
2023-10-10T13:12:59.872Z,24.45
2023-10-10T13:15:50.579Z,24.71
2023-10-10T13:18:36.959Z,24.36
2023-10-10T13:21:24.414Z,24.34
2023-10-10T13:24:15.375Z,23.95
2023-10-10T13:27:01.501Z,23.76
2023-10-10T13:29:49.287Z,23.62
2023-10-10T13:32:35.528Z,23.33
2023-10-10T13:35:21.865Z,22.93
2023-10-10T13:38:09.060Z,22.60
2023-10-10T13:40:55.214Z,22.54
2023-10-10T13:43:44.772Z,22.38
2023-10-10T13:46:36.241Z,22.24
2023-10-10T13:49:22.374Z,22.78
2023-10-10T13:52:11.676Z,23.01
2023-10-10T13:54:58.060Z,22.99
2023-10-10T13:57:44.690Z,23.30
2023-10-10T14:00:36.355Z,23.60
2023-10-10T14:03:38.756Z,24.25
2023-10-10T14:06:28.268Z,24.48
2023-10-10T14:09:27.121Z,24.59
2023-10-10T14:12:21.431Z,24.84
2023-10-10T14:15:07.848Z,25.11
2023-10-10T14:17:56.680Z,25.16
2023-10-10T14:20:44.814Z,25.49
2023-10-10T14:23:31.457Z,25.76
2023-10-10T14:26:28.553Z,26.00
2023-10-10T14:29:17.589Z,26.18
2023-10-10T14:32:04.620Z,26.25
2023-10-10T14:34:53.858Z,26.50
2023-10-10T14:37:54.231Z,26.51
2023-10-10T14:40:46.638Z,27.00
2023-10-10T14:43:34.292Z,27.18
2023-10-10T14:46:25.801Z,27.29
2023-10-10T14:49:30.302Z,27.49
2023-10-10T14:52:18.425Z,27.47
2023-10-10T14:55:08.181Z,27.89
2023-10-10T14:57:58.139Z,28.01
2023-10-10T15:00:46.313Z,28.07
2023-10-10T15:03:42.769Z,27.93
2023-10-10T15:06:30.191Z,28.28
2023-10-10T15:09:25.231Z,28.52
2023-10-10T15:12:13.662Z,28.39
2023-10-10T15:15:01.408Z,28.60
2023-10-10T15:17:47.657Z,28.52
2023-10-10T15:20:36.044Z,28.73
2023-10-10T15:23:22.556Z,28.77
2023-10-10T15:26:18.703Z,28.98
2023-10-10T15:29:05.595Z,29.02
2023-10-10T15:31:52.414Z,28.99
2023-10-10T15:34:42.076Z,29.42
2023-10-10T15:37:30.931Z,29.37
2023-10-10T15:40:23.431Z,29.63
2023-10-10T15:43:26.492Z,29.50
2023-10-10T15:46:28.190Z,29.71
2023-10-10T15:52:05.995Z,30.04
2023-10-10T15:54:53.069Z,29.93
2023-10-10T15:57:39.486Z,30.07
2023-10-10T16:00:39.276Z,30.04
2023-10-10T16:03:25.436Z,30.17
2023-10-10T16:06:11.997Z,30.54
2023-10-10T16:08:59.951Z,30.44
2023-10-10T16:11:54.481Z,30.45
2023-10-10T16:14:40.812Z,30.67
2023-10-10T16:17:29.908Z,30.68
2023-10-10T16:20:16.420Z,30.80
2023-10-10T16:23:02.841Z,30.68
2023-10-10T16:25:51.333Z,30.89
2023-10-10T16:28:38.752Z,31.07
2023-10-10T16:31:33.889Z,31.19
2023-10-10T16:34:20.006Z,31.31
2023-10-10T16:37:07.340Z,31.34
2023-10-10T16:39:53.666Z,31.64
2023-10-10T16:42:40.047Z,31.57
2023-10-10T16:45:27.335Z,31.53
2023-10-10T16:48:13.478Z,31.57
2023-10-10T16:51:03.134Z,31.80
2023-10-10T16:53:54.349Z,31.81
2023-10-10T16:56:41.850Z,31.94
2023-10-10T16:59:27.939Z,31.94
2023-10-10T17:02:14.210Z,32.02
2023-10-10T17:05:06.124Z,31.94
2023-10-10T17:07:55.685Z,32.17
2023-10-10T17:10:42.521Z,32.26
2023-10-10T17:13:30.561Z,32.35
2023-10-10T17:16:27.247Z,32.58
2023-10-10T17:19:18.348Z,32.66
2023-10-10T17:22:05.816Z,32.50
2023-10-10T17:24:51.857Z,32.78
2023-10-10T17:27:38.987Z,32.70
2023-10-10T17:30:29.529Z,32.97
2023-10-10T17:33:16.785Z,32.97
2023-10-10T17:36:04.416Z,32.88
2023-10-10T17:38:53.603Z,33.24
2023-10-10T17:41:39.670Z,33.16
2023-10-10T17:44:27.615Z,33.13
2023-10-10T17:47:16.432Z,33.28
2023-10-10T17:50:02.787Z,33.36
2023-10-10T17:52:49.046Z,33.39
2023-10-10T17:55:36.803Z,33.62
2023-10-10T17:58:37.870Z,33.64
2023-10-10T18:01:36.857Z,33.65
2023-10-10T18:04:45.304Z,33.85
2023-10-10T18:17:32.640Z,34.20
2023-10-10T18:20:28.721Z,34.23
2023-10-10T18:23:18.859Z,34.33
2023-10-10T18:26:28.055Z,34.58
2023-10-10T18:29:17.103Z,34.49
2023-10-10T18:32:06.752Z,34.51
2023-10-10T18:34:53.895Z,34.37
2023-10-10T18:38:01.099Z,34.81
2023-10-10T18:40:56.155Z,34.77
2023-10-10T18:43:43.439Z,34.74
2023-10-10T18:46:29.678Z,34.95
2023-10-10T18:49:16.305Z,34.98
2023-10-10T18:52:06.032Z,34.86
2023-10-10T18:54:53.107Z,35.08
2023-10-10T18:57:40.177Z,35.03
2023-10-10T19:00:27.762Z,35.26
2023-10-10T19:03:15.941Z,35.21
2023-10-10T19:06:02.117Z,35.25
2023-10-10T19:08:50.391Z,35.14
2023-10-10T19:11:36.441Z,35.44
2023-10-10T19:14:23.260Z,35.41
2023-10-10T19:17:09.457Z,35.59
2023-10-10T19:19:55.634Z,35.77
2023-10-10T19:22:41.807Z,35.67
2023-10-10T19:25:30.994Z,35.94
2023-10-10T19:28:17.680Z,35.97
2023-10-10T19:31:05.954Z,36.07
2023-10-10T19:33:53.686Z,36.11
2023-10-10T19:36:39.908Z,36.18
2023-10-10T19:39:28.837Z,36.12
2023-10-10T19:42:18.596Z,36.21
2023-10-10T19:45:22.520Z,36.44
2023-10-10T19:48:17.114Z,36.37
2023-10-10T19:51:08.685Z,36.44
2023-10-10T19:53:55.006Z,36.53
2023-10-10T19:56:43.916Z,36.50
2023-10-10T19:59:30.064Z,36.58
2023-10-10T20:02:16.727Z,36.60
2023-10-10T20:05:02.896Z,36.89
2023-10-10T20:07:50.215Z,36.79
2023-10-10T20:10:38.506Z,37.07
2023-10-10T20:13:24.851Z,36.85
2023-10-10T20:16:16.353Z,36.92
2023-10-10T20:19:02.919Z,36.90
2023-10-10T20:21:48.883Z,36.94
2023-10-10T20:24:36.182Z,36.98
2023-10-10T20:27:26.056Z,37.06
2023-10-10T20:30:15.856Z,36.99
2023-10-10T20:33:05.629Z,37.29
2023-10-10T20:35:53.135Z,37.41
2023-10-10T20:38:44.228Z,37.39
2023-10-10T20:41:30.645Z,37.34
2023-10-10T20:44:17.124Z,37.48
2023-10-10T20:47:05.052Z,37.63
2023-10-10T20:49:51.335Z,37.61
2023-10-10T20:52:39.555Z,37.65
2023-10-10T20:55:28.752Z,37.81
2023-10-10T20:58:16.460Z,38.10
2023-10-10T21:01:03.830Z,38.03
2023-10-10T21:03:49.931Z,38.05
2023-10-10T21:06:36.633Z,38.16
2023-10-10T21:09:23.242Z,38.18
2023-10-10T21:12:10.095Z,38.28
2023-10-10T21:14:56.301Z,38.28
2023-10-10T21:17:49.620Z,38.58
2023-10-10T21:20:44.776Z,38.58
2023-10-10T21:23:39.706Z,38.47
2023-10-10T21:26:26.199Z,38.64
2023-10-10T21:29:12.259Z,38.63
2023-10-10T21:31:58.305Z,38.59
2023-10-10T21:34:44.244Z,38.74
2023-10-10T21:37:30.319Z,38.68
2023-10-10T21:40:26.218Z,38.99
2023-10-10T21:43:12.413Z,38.95
2023-10-10T21:45:59.380Z,39.07
2023-10-10T21:48:45.548Z,39.00
2023-10-10T21:51:33.223Z,39.09
2023-10-10T21:54:22.335Z,39.16
2023-10-10T21:57:08.530Z,39.13
2023-10-10T21:59:55.003Z,39.24
2023-10-10T22:02:41.490Z,39.23
2023-10-10T22:05:27.426Z,39.33
2023-10-10T22:08:13.858Z,39.52
2023-10-10T22:11:03.339Z,39.68
2023-10-10T22:13:50.970Z,39.75
2023-10-10T22:16:36.967Z,39.77
2023-10-10T22:19:22.939Z,39.63
2023-10-10T22:22:09.095Z,39.70
2023-10-10T22:24:57.170Z,39.69
2023-10-10T22:27:43.030Z,39.77
2023-10-10T22:30:33.944Z,39.81
2023-10-10T22:33:20.420Z,39.93
2023-10-10T22:36:16.128Z,40.09
2023-10-10T22:39:07.961Z,39.88
2023-10-10T22:41:53.919Z,40.06
2023-10-10T22:44:40.073Z,40.01
2023-10-10T22:47:26.069Z,40.12
2023-10-10T22:50:16.324Z,40.22
2023-10-10T22:53:03.985Z,40.17
2023-10-10T22:55:49.818Z,40.45
2023-10-10T22:58:35.902Z,40.36
2023-10-10T23:01:23.583Z,40.46
2023-10-10T23:04:11.780Z,40.43
2023-10-10T23:06:59.186Z,40.48
2023-10-10T23:09:45.172Z,40.56
2023-10-10T23:12:37.579Z,40.80
2023-10-10T23:15:27.714Z,40.64
2023-10-10T23:18:14.864Z,40.83
2023-10-10T23:21:00.872Z,40.76
2023-10-10T23:23:47.074Z,41.06
2023-10-10T23:26:34.590Z,41.15
2023-10-10T23:29:20.308Z,41.10
2023-10-10T23:32:07.152Z,41.15
2023-10-10T23:34:53.276Z,41.21
2023-10-10T23:37:40.223Z,41.21
2023-10-10T23:40:26.289Z,41.47
2023-10-10T23:43:22.219Z,41.27
2023-10-10T23:46:08.426Z,41.39
2023-10-10T23:48:56.095Z,41.55
2023-10-10T23:51:45.595Z,41.59
2023-10-10T23:54:31.383Z,41.55
2023-10-10T23:57:19.700Z,41.57
